createdAt,value
2023-01-11T00:00:56.793Z,29.30
2023-01-11T00:05:50.333Z,27.60
2023-01-11T00:08:19.126Z,29.52
2023-01-11T00:10:45.962Z,29.33
2023-01-11T00:13:13.928Z,30.25
2023-01-11T00:15:41.096Z,28.95
2023-01-11T00:18:07.933Z,28.67
2023-01-11T00:20:35.312Z,30.80
2023-01-11T00:23:02.162Z,30.58
2023-01-11T00:25:29.221Z,28.15
2023-01-11T00:27:56.167Z,30.95
2023-01-11T00:30:26.004Z,29.13
2023-01-11T00:32:58.109Z,28.38
2023-01-11T00:35:26.374Z,28.77
2023-01-11T00:37:54.495Z,28.55
2023-01-11T00:40:21.947Z,28.25
2023-01-11T00:43:07.607Z,29.10
2023-01-11T00:45:53.171Z,27.88
2023-01-11T00:48:20.026Z,27.92
2023-01-11T00:50:46.868Z,26.27
2023-01-11T00:53:14.492Z,27.13
2023-01-11T00:55:41.377Z,26.98
2023-01-11T00:58:08.220Z,26.33
2023-01-11T01:00:35.194Z,25.85
2023-01-11T01:03:02.109Z,27.08
2023-01-11T01:05:29.041Z,25.52
2023-01-11T01:07:55.875Z,25.63
2023-01-11T01:10:22.783Z,24.77
2023-01-11T01:13:08.102Z,24.50
2023-01-11T01:15:35.067Z,23.00
2023-01-11T01:18:02.165Z,23.48
2023-01-11T01:20:29.109Z,23.65
2023-01-11T01:22:55.946Z,23.73
2023-01-11T01:25:22.982Z,23.63
2023-01-11T01:27:49.864Z,23.45
2023-01-11T01:30:17.243Z,24.00
2023-01-11T01:32:44.169Z,22.80
2023-01-11T01:35:11.469Z,22.70
2023-01-11T01:37:38.373Z,23.15
2023-01-11T01:40:06.717Z,28.30
2023-01-11T01:42:33.970Z,23.15
2023-01-11T01:45:16.849Z,21.73
2023-01-11T01:47:53.276Z,23.55
2023-01-11T01:50:27.491Z,22.02
2023-01-11T01:53:01.940Z,21.63
2023-01-11T01:55:35.607Z,21.65
2023-01-11T01:58:09.988Z,23.60
2023-01-11T02:00:42.507Z,22.75
2023-01-11T02:03:15.540Z,22.70
2023-01-11T02:08:20.688Z,23.02
2023-01-11T02:10:48.170Z,23.08
2023-01-11T02:13:15.457Z,22.73
2023-01-11T02:15:42.425Z,23.88
2023-01-11T02:18:13.986Z,22.48
2023-01-11T02:21:24.268Z,22.75
2023-01-11T02:24:09.727Z,24.00
2023-01-11T02:26:55.471Z,23.23
2023-01-11T02:29:41.247Z,24.55
2023-01-11T02:32:25.483Z,23.88
2023-01-11T02:35:26.426Z,23.10
2023-01-11T02:38:26.161Z,23.25
2023-01-11T02:41:05.087Z,23.63
2023-01-11T02:44:08.234Z,23.35
2023-01-11T02:46:46.284Z,23.98
2023-01-11T02:49:39.727Z,23.75
2023-01-11T02:54:53.973Z,24.27
2023-01-11T02:57:22.857Z,25.58
2023-01-11T02:59:51.142Z,26.52
2023-01-11T03:02:18.368Z,28.10
2023-01-11T03:04:45.228Z,26.77
2023-01-11T03:07:38.906Z,27.83
2023-01-11T03:10:41.496Z,28.52
2023-01-11T03:13:50.396Z,26.52
2023-01-11T03:16:34.441Z,27.55
2023-01-11T03:19:45.081Z,28.33
2023-01-11T03:22:59.645Z,27.73
2023-01-11T03:25:40.940Z,27.83
2023-01-11T03:28:40.371Z,26.80
2023-01-11T03:31:19.179Z,27.27
2023-01-11T03:34:00.729Z,26.25
2023-01-11T03:36:39.499Z,26.88
2023-01-11T03:39:44.672Z,26.30
2023-01-11T03:42:19.292Z,25.58
2023-01-11T03:44:54.576Z,25.80
2023-01-11T03:47:26.565Z,25.10
2023-01-11T03:49:59.948Z,25.15
2023-01-11T03:52:34.580Z,26.08
2023-01-11T03:55:05.784Z,26.33
2023-01-11T03:57:37.386Z,25.08
2023-01-11T04:00:07.586Z,23.92
2023-01-11T04:02:39.653Z,24.15
2023-01-11T04:05:09.652Z,24.33
2023-01-11T04:07:36.685Z,23.35
2023-01-11T04:10:05.051Z,22.52
2023-01-11T04:12:34.895Z,22.95
2023-01-11T04:15:03.334Z,23.30
2023-01-11T04:17:30.177Z,22.33
2023-01-11T04:19:57.108Z,22.20
2023-01-11T04:22:23.988Z,21.08
2023-01-11T04:24:50.839Z,22.50
2023-01-11T04:27:17.656Z,25.42
2023-01-11T04:29:44.455Z,25.30
2023-01-11T04:32:11.311Z,24.38
2023-01-11T04:34:38.352Z,24.23
2023-01-11T04:37:05.218Z,22.08
2023-01-11T04:39:32.078Z,23.63
2023-01-11T04:42:17.235Z,23.55
2023-01-11T04:44:48.930Z,24.60
2023-01-11T04:47:16.927Z,25.98
2023-01-11T04:49:44.388Z,25.17
2023-01-11T04:52:14.019Z,24.42
2023-01-11T04:54:41.793Z,24.77
2023-01-11T04:57:13.321Z,25.13
2023-01-11T04:59:40.446Z,24.40
2023-01-11T05:02:07.484Z,25.17
2023-01-11T05:04:34.691Z,25.10
2023-01-11T05:07:01.796Z,24.73
2023-01-11T05:09:28.844Z,24.88
2023-01-11T05:11:55.680Z,23.45
2023-01-11T05:14:22.646Z,21.67
2023-01-11T05:16:49.601Z,22.50
2023-01-11T05:19:16.650Z,22.10
2023-01-11T05:21:43.545Z,21.02
2023-01-11T05:24:16.162Z,19.50
2023-01-11T05:26:45.857Z,19.05
2023-01-11T05:29:16.399Z,19.20
2023-01-11T05:31:43.522Z,18.42
2023-01-11T05:34:13.819Z,17.80
2023-01-11T05:36:44.705Z,19.23
2023-01-11T05:39:13.872Z,19.35
2023-01-11T05:41:41.361Z,19.27
2023-01-11T05:44:31.875Z,18.65
2023-01-11T05:46:59.273Z,18.35
2023-01-11T05:49:26.212Z,19.13
2023-01-11T05:51:53.091Z,16.77
2023-01-11T05:54:20.059Z,19.52
2023-01-11T05:56:46.898Z,18.35
2023-01-11T05:59:13.750Z,16.67
2023-01-11T06:01:40.694Z,15.00
2023-01-11T06:04:08.490Z,15.35
2023-01-11T06:06:35.725Z,14.20
2023-01-11T06:09:02.748Z,14.52
2023-01-11T06:11:29.909Z,14.07
2023-01-11T06:13:56.735Z,13.90
2023-01-11T06:16:24.127Z,14.48
2023-01-11T06:18:53.259Z,13.57
2023-01-11T06:21:21.604Z,12.77
2023-01-11T06:23:51.001Z,13.45
2023-01-11T06:26:21.636Z,13.63
2023-01-11T06:28:48.850Z,12.35
2023-01-11T06:31:17.956Z,12.48
2023-01-11T06:33:46.131Z,12.25
2023-01-11T06:36:14.987Z,12.63
2023-01-11T06:38:42.792Z,12.85
2023-01-11T06:41:11.325Z,12.25
2023-01-11T06:43:42.395Z,12.13
2023-01-11T06:46:14.738Z,12.32
2023-01-11T06:48:43.685Z,12.30
2023-01-11T06:51:12.037Z,12.38
2023-01-11T06:53:40.944Z,12.80
2023-01-11T06:56:12.559Z,13.55
2023-01-11T06:58:39.695Z,12.93
2023-01-11T07:01:07.445Z,13.60
2023-01-11T07:03:34.536Z,13.23
2023-01-11T07:06:02.367Z,14.23
2023-01-11T07:08:29.400Z,13.88
2023-01-11T07:10:56.790Z,14.32
2023-01-11T07:13:23.953Z,14.25
2023-01-11T07:15:52.326Z,14.20
2023-01-11T07:18:20.115Z,14.38
2023-01-11T07:20:47.781Z,15.48
2023-01-11T07:23:15.134Z,14.75
2023-01-11T07:25:42.099Z,14.75
2023-01-11T07:28:09.570Z,14.65
2023-01-11T07:30:56.287Z,15.73
2023-01-11T07:33:25.256Z,15.32
2023-01-11T07:35:52.319Z,15.43
2023-01-11T07:38:19.481Z,15.35
2023-01-11T07:40:46.381Z,15.63
2023-01-11T07:43:15.012Z,15.77
2023-01-11T07:45:51.862Z,16.48
2023-01-11T07:48:29.263Z,15.43
2023-01-11T07:50:56.202Z,15.90
2023-01-11T07:53:26.220Z,16.48
2023-01-11T07:55:55.845Z,15.40
2023-01-11T07:58:22.868Z,16.35
2023-01-11T08:00:49.790Z,18.42
2023-01-11T08:03:16.929Z,19.15
2023-01-11T08:05:43.910Z,16.30
2023-01-11T08:08:10.807Z,14.60
2023-01-11T08:10:38.757Z,17.45
2023-01-11T08:13:32.177Z,14.45
2023-01-11T08:16:00.054Z,14.40
2023-01-11T08:18:27.005Z,14.43
2023-01-11T08:20:54.193Z,14.73
2023-01-11T08:23:21.229Z,14.90
2023-01-11T08:25:48.182Z,14.27
2023-01-11T08:28:15.036Z,15.60
2023-01-11T08:30:42.000Z,13.57
2023-01-11T08:33:10.272Z,14.82
2023-01-11T08:35:39.223Z,13.85
2023-01-11T08:38:06.951Z,14.00
2023-01-11T08:40:34.264Z,12.65
2023-01-11T08:43:01.113Z,13.70
2023-01-11T08:45:28.205Z,12.48
2023-01-11T08:47:55.837Z,13.43
2023-01-11T08:50:23.204Z,13.30
2023-01-11T08:52:51.879Z,13.55
2023-01-11T08:55:21.493Z,15.88
2023-01-11T08:57:51.452Z,12.85
2023-01-11T09:00:19.559Z,13.55
2023-01-11T09:02:46.525Z,14.07
2023-01-11T09:05:13.457Z,12.90
2023-01-11T09:07:40.564Z,13.02
2023-01-11T09:10:08.036Z,13.13
2023-01-11T09:12:35.276Z,13.23
2023-01-11T09:15:02.511Z,14.25
2023-01-11T09:17:29.389Z,14.60
2023-01-11T09:19:56.273Z,14.15
2023-01-11T09:22:23.793Z,15.30
2023-01-11T09:24:50.673Z,14.52
2023-01-11T09:27:17.610Z,15.35
2023-01-11T09:29:44.630Z,16.95
2023-01-11T09:32:11.569Z,14.68
2023-01-11T09:34:39.220Z,15.02
2023-01-11T09:37:07.103Z,15.00
2023-01-11T09:39:35.234Z,13.80
2023-01-11T09:42:39.458Z,14.27
2023-01-11T09:45:21.759Z,15.65
2023-01-11T09:48:14.746Z,10.33
2023-01-11T09:50:47.752Z,15.23
2023-01-11T09:56:03.824Z,14.25
2023-01-11T09:58:51.623Z,12.95
2023-01-11T10:01:42.547Z,13.98
2023-01-11T10:05:04.167Z,12.68
2023-01-11T10:07:34.688Z,13.35
2023-01-11T10:18:31.914Z,12.07
2023-01-11T10:19:39.477Z,13.27
2023-01-11T10:22:33.631Z,11.35
2023-01-11T10:25:16.894Z,12.57
2023-01-11T10:30:59.666Z,12.23
2023-01-11T10:33:48.212Z,11.87
2023-01-11T10:36:36.724Z,11.25
2023-01-11T10:40:14.599Z,12.95
2023-01-11T10:43:21.689Z,11.23
2023-01-11T10:48:45.512Z,15.82
2023-01-11T10:51:32.455Z,14.95
2023-01-11T10:54:35.571Z,12.15
2023-01-11T10:57:25.350Z,11.63
2023-01-11T11:00:34.102Z,11.77
2023-01-11T11:03:48.452Z,11.98
2023-01-11T11:06:27.682Z,11.50
2023-01-11T11:09:21.265Z,12.05
2023-01-11T11:12:00.255Z,12.10
2023-01-11T11:14:51.463Z,12.25
2023-01-11T11:17:32.769Z,13.38
2023-01-11T11:20:00.286Z,12.15
2023-01-11T11:22:30.011Z,13.52
2023-01-11T11:25:11.929Z,13.65
2023-01-11T11:27:46.499Z,11.48
2023-01-11T11:30:26.499Z,11.45
2023-01-11T11:33:25.761Z,11.57
2023-01-11T11:36:04.869Z,11.85
2023-01-11T11:38:38.914Z,11.40
2023-01-11T11:41:19.128Z,12.40
2023-01-11T11:43:48.038Z,10.73
2023-01-11T11:46:19.453Z,11.32
2023-01-11T11:49:16.804Z,10.63
2023-01-11T11:51:47.096Z,11.10
2023-01-11T11:54:36.573Z,10.55
2023-01-11T11:57:42.686Z,16.05
2023-01-11T12:00:45.941Z,12.98
2023-01-11T12:03:23.575Z,19.30
2023-01-11T12:05:55.820Z,22.50
2023-01-11T12:08:27.117Z,18.15
2023-01-11T12:10:59.770Z,12.15
2023-01-11T12:13:35.182Z,11.02
2023-01-11T12:16:20.817Z,11.30
2023-01-11T12:18:48.588Z,11.13
2023-01-11T12:21:24.231Z,11.55
2023-01-11T12:24:19.048Z,13.00
2023-01-11T12:26:54.980Z,10.32
2023-01-11T12:29:32.086Z,10.25
2023-01-11T12:32:23.023Z,10.15
2023-01-11T12:35:33.833Z,9.88
2023-01-11T12:38:21.076Z,11.18
2023-01-11T12:41:49.055Z,10.30
2023-01-11T12:44:50.388Z,10.38
2023-01-11T12:47:48.030Z,11.20
2023-01-11T12:50:24.807Z,10.93
2023-01-11T12:53:12.936Z,9.80
2023-01-11T12:56:13.215Z,11.43
2023-01-11T12:58:57.906Z,11.18
2023-01-11T13:02:11.142Z,10.63
2023-01-11T13:05:17.163Z,14.50
2023-01-11T13:08:12.260Z,13.82
2023-01-11T13:11:34.989Z,9.82
2023-01-11T13:14:31.546Z,11.48
2023-01-11T13:17:27.503Z,11.45
2023-01-11T13:20:16.622Z,9.80
2023-01-11T13:22:58.974Z,10.80
2023-01-11T13:25:34.092Z,10.90
2023-01-11T13:28:23.883Z,10.23
2023-01-11T13:30:51.583Z,10.98
2023-01-11T13:33:23.571Z,10.73
2023-01-11T13:36:22.575Z,15.13
2023-01-11T13:39:20.784Z,13.50
2023-01-11T13:42:00.516Z,13.40
2023-01-11T13:44:37.203Z,16.45
2023-01-11T13:47:19.714Z,17.05
2023-01-11T13:50:10.272Z,15.93
2023-01-11T13:53:09.740Z,10.93
2023-01-11T13:56:06.187Z,9.95
2023-01-11T13:58:48.531Z,10.63
2023-01-11T14:01:42.738Z,10.63
2023-01-11T14:04:27.439Z,11.20
2023-01-11T14:07:24.879Z,10.52
2023-01-11T14:10:23.198Z,11.35
2023-01-11T14:13:01.893Z,12.10
2023-01-11T14:15:59.304Z,11.20
2023-01-11T14:18:40.846Z,11.18
2023-01-11T14:21:30.334Z,10.68
2023-01-11T14:23:58.361Z,11.02
2023-01-11T14:27:00.525Z,10.05
2023-01-11T14:30:06.132Z,10.30
2023-01-11T14:33:19.234Z,10.98
2023-01-11T14:36:24.302Z,9.43
2023-01-11T14:39:29.680Z,9.50
2023-01-11T14:42:32.117Z,9.07
2023-01-11T14:45:35.249Z,11.23
2023-01-11T14:48:35.997Z,9.52
2023-01-11T14:51:43.824Z,14.93
2023-01-11T14:54:21.446Z,12.88
2023-01-11T14:57:01.104Z,13.80
2023-01-11T14:59:30.717Z,10.88
2023-01-11T15:02:03.379Z,14.10
2023-01-11T15:04:57.677Z,16.83
2023-01-11T15:07:26.178Z,12.65
2023-01-11T15:09:54.085Z,19.33
2023-01-11T15:12:34.189Z,15.48
2023-01-11T15:15:16.932Z,14.30
2023-01-11T15:18:03.091Z,13.50
2023-01-11T15:20:30.777Z,12.10
2023-01-11T15:23:05.312Z,12.10
2023-01-11T15:25:35.058Z,13.85
2023-01-11T15:28:44.459Z,11.07
2023-01-11T15:31:58.507Z,9.38
2023-01-11T15:34:39.776Z,8.38
2023-01-11T15:37:42.715Z,10.32
2023-01-11T15:40:29.049Z,10.57
2023-01-11T15:43:47.015Z,9.45
2023-01-11T15:46:55.167Z,10.10
2023-01-11T15:49:43.009Z,10.70
2023-01-11T15:52:53.328Z,10.52
2023-01-11T15:56:22.962Z,10.85
2023-01-11T15:59:34.396Z,10.57
2023-01-11T16:02:13.156Z,11.05
2023-01-11T16:04:57.536Z,10.82
2023-01-11T16:07:42.995Z,11.00
2023-01-11T16:10:30.986Z,11.02
2023-01-11T16:13:00.618Z,12.23
2023-01-11T16:15:50.743Z,14.07
2023-01-11T16:18:26.146Z,13.52
2023-01-11T16:21:21.286Z,14.80
2023-01-11T16:23:49.574Z,14.13
2023-01-11T16:26:22.046Z,19.48
2023-01-11T16:28:58.894Z,10.23
2023-01-11T16:31:55.717Z,17.35
2023-01-11T16:34:26.023Z,14.40
2023-01-11T16:36:53.039Z,15.73
2023-01-11T16:39:25.608Z,17.92
2023-01-11T16:42:05.775Z,13.27
2023-01-11T16:44:58.836Z,11.60
2023-01-11T16:47:25.780Z,15.57
2023-01-11T16:50:21.384Z,15.00
2023-01-11T16:53:11.154Z,14.77
2023-01-11T16:55:41.180Z,14.70
2023-01-11T16:58:30.179Z,17.20
2023-01-11T17:01:00.630Z,21.40
2023-01-11T17:03:37.126Z,22.23
2023-01-11T17:06:12.790Z,11.95
2023-01-11T17:08:43.309Z,13.27
2023-01-11T17:11:39.427Z,16.67
2023-01-11T17:14:30.713Z,16.90
2023-01-11T17:17:02.404Z,13.75
2023-01-11T17:19:34.325Z,13.13
2023-01-11T17:22:30.591Z,15.20
2023-01-11T17:25:04.321Z,16.17
2023-01-11T17:27:44.840Z,12.60
2023-01-11T17:30:24.824Z,15.88
2023-01-11T17:32:56.373Z,23.27
2023-01-11T17:35:31.465Z,16.00
2023-01-11T17:38:02.951Z,15.05
2023-01-11T17:40:40.406Z,17.88
2023-01-11T17:43:35.269Z,14.95
2023-01-11T17:46:05.272Z,16.05
2023-01-11T17:48:33.907Z,15.23
2023-01-11T17:51:06.066Z,14.68
2023-01-11T17:53:37.594Z,15.90
2023-01-11T17:56:07.840Z,15.15
2023-01-11T17:58:38.473Z,14.90
2023-01-11T18:01:08.257Z,15.80
2023-01-11T18:03:49.101Z,17.63
2023-01-11T18:06:39.965Z,19.77
2023-01-11T18:09:22.307Z,24.17
2023-01-11T18:11:52.252Z,20.90
2023-01-11T18:14:28.333Z,22.73
2023-01-11T18:17:04.949Z,36.13
2023-01-11T18:19:42.445Z,31.83
2023-01-11T18:22:29.619Z,20.55
2023-01-11T18:25:00.410Z,24.00
2023-01-11T18:27:34.029Z,20.27
2023-01-11T18:30:07.929Z,23.15
2023-01-11T18:32:42.105Z,20.52
2023-01-11T18:35:19.852Z,23.77
2023-01-11T18:37:47.183Z,17.50
2023-01-11T18:40:16.555Z,21.08
2023-01-11T18:42:48.489Z,18.02
2023-01-11T18:45:16.054Z,17.20
2023-01-11T18:47:43.423Z,21.20
2023-01-11T18:50:14.072Z,17.30
2023-01-11T18:52:40.963Z,18.65
2023-01-11T18:55:11.746Z,20.83
2023-01-11T18:57:38.689Z,19.95
2023-01-11T19:00:06.327Z,25.75
2023-01-11T19:02:42.901Z,23.70
2023-01-11T19:05:18.673Z,21.90
2023-01-11T19:07:46.420Z,22.88
2023-01-11T19:10:20.682Z,22.13
2023-01-11T19:12:47.859Z,20.90
2023-01-11T19:15:15.793Z,24.33
2023-01-11T19:17:43.528Z,22.95
2023-01-11T19:20:13.373Z,23.08
2023-01-11T19:22:41.043Z,21.85
2023-01-11T19:25:10.895Z,24.08
2023-01-11T19:27:38.424Z,20.52
2023-01-11T19:30:09.664Z,24.73
2023-01-11T19:32:36.624Z,23.20
2023-01-11T19:35:03.801Z,21.45
2023-01-11T19:37:31.127Z,22.05
2023-01-11T19:39:58.063Z,20.73
2023-01-11T19:42:25.100Z,21.25
2023-01-11T19:44:53.327Z,21.15
2023-01-11T19:47:20.562Z,22.67
2023-01-11T19:49:47.618Z,20.98
2023-01-11T19:52:19.308Z,21.23
2023-01-11T19:54:47.337Z,23.88
2023-01-11T19:57:23.236Z,23.95
2023-01-11T19:59:50.830Z,22.55
2023-01-11T20:02:21.106Z,27.55
2023-01-11T20:04:48.353Z,29.85
2023-01-11T20:07:16.084Z,28.00
2023-01-11T20:09:43.777Z,24.60
2023-01-11T20:12:15.461Z,28.38
2023-01-11T20:14:44.471Z,31.48
2023-01-11T20:17:12.612Z,31.65
2023-01-11T20:19:39.712Z,36.90
2023-01-11T20:22:06.705Z,31.55
2023-01-11T20:24:33.600Z,42.28
2023-01-11T20:27:03.004Z,29.90
2023-01-11T20:29:30.678Z,31.75
2023-01-11T20:32:10.515Z,36.63
2023-01-11T20:34:45.566Z,29.35
2023-01-11T20:37:12.577Z,26.80
2023-01-11T20:39:39.577Z,26.48
2023-01-11T20:42:06.576Z,28.38
2023-01-11T20:44:33.482Z,24.25
2023-01-11T20:47:01.142Z,21.55
2023-01-11T20:49:29.984Z,24.52
2023-01-11T20:51:57.661Z,26.13
2023-01-11T20:54:24.805Z,20.70
2023-01-11T20:56:54.577Z,25.27
2023-01-11T20:59:21.524Z,21.90
2023-01-11T21:01:49.944Z,20.42
2023-01-11T21:04:18.514Z,24.67
2023-01-11T21:06:50.815Z,21.63
2023-01-11T21:09:18.779Z,20.75
2023-01-11T21:11:53.208Z,22.20
2023-01-11T21:14:22.315Z,23.38
2023-01-11T21:16:49.586Z,19.80
2023-01-11T21:19:17.107Z,23.10
2023-01-11T21:21:44.577Z,28.20
2023-01-11T21:24:16.248Z,24.42
2023-01-11T21:26:45.620Z,26.55
2023-01-11T21:29:13.197Z,23.45
2023-01-11T21:31:40.947Z,27.45
2023-01-11T21:34:11.222Z,24.95
2023-01-11T21:36:38.286Z,24.90
2023-01-11T21:39:05.644Z,23.48
2023-01-11T21:41:52.340Z,32.88
2023-01-11T21:44:21.652Z,26.85
2023-01-11T21:46:50.237Z,23.67
2023-01-11T21:49:17.752Z,22.92
2023-01-11T21:51:44.622Z,25.00
2023-01-11T21:54:15.116Z,21.92
2023-01-11T21:56:42.024Z,20.88
2023-01-11T21:59:09.363Z,18.92
2023-01-11T22:01:37.485Z,17.50
2023-01-11T22:04:06.720Z,17.42
2023-01-11T22:06:38.161Z,20.02
2023-01-11T22:09:08.088Z,18.63
2023-01-11T22:11:35.266Z,17.02
2023-01-11T22:14:04.171Z,19.35
2023-01-11T22:16:32.519Z,17.02
2023-01-11T22:19:01.277Z,21.75
2023-01-11T22:21:29.290Z,25.15
2023-01-11T22:23:58.852Z,19.48
2023-01-11T22:26:29.925Z,30.42
2023-01-11T22:29:12.521Z,20.33
2023-01-11T22:31:44.676Z,18.40
2023-01-11T22:34:13.832Z,18.13
2023-01-11T22:36:42.265Z,18.05
2023-01-11T22:39:09.843Z,16.85
2023-01-11T22:41:37.230Z,16.83
2023-01-11T22:44:04.284Z,18.27
2023-01-11T22:46:31.141Z,16.55
2023-01-11T22:48:58.833Z,17.08
2023-01-11T22:51:27.466Z,16.35
2023-01-11T22:53:56.460Z,16.50
2023-01-11T22:56:26.494Z,17.92
2023-01-11T22:58:54.092Z,15.20
2023-01-11T23:01:34.822Z,13.63
2023-01-11T23:04:02.858Z,18.15
2023-01-11T23:06:36.834Z,16.88
2023-01-11T23:09:06.779Z,17.23
2023-01-11T23:11:57.198Z,14.00
2023-01-11T23:14:31.114Z,12.77
2023-01-11T23:17:05.855Z,13.77
2023-01-11T23:19:34.872Z,13.60
2023-01-11T23:22:02.209Z,13.50
2023-01-11T23:38:00.583Z,17.15
2023-01-11T23:40:27.479Z,16.48
2023-01-11T23:42:54.367Z,15.13
2023-01-11T23:45:21.420Z,16.33
2023-01-11T23:47:49.517Z,16.65
2023-01-11T23:50:16.476Z,15.07
2023-01-11T23:52:43.603Z,14.75
2023-01-11T23:55:11.226Z,15.20
2023-01-11T23:57:58.099Z,14.88
